Time;durP1;ratioP1;P1;durP2;ratioP2;P2;SDS_P1;SDS_P2;PMS_P1;PMS_P2;Temp;Humidity;BMP_temperature;BMP_pressure;BME280_temperature;BME280_humidity;BME280_pressure;Samples;Min_cycle;Max_cycle;Signal;HPM_P1;HPM_P2
2022/06/01 00:00:29;;;;;;;16.33;8.27;;;11.20;99.90;;;;;;4428093;28;657303;-68
2022/06/01 00:03:16;;;;;;;10.00;6.90;;;11.30;99.90;;;;;;4403114;28;658303;-68
2022/06/01 00:06:03;;;;;;;12.37;7.47;;;11.40;99.90;;;;;;4431210;28;659006;-68
2022/06/01 00:08:51;;;;;;;14.10;7.87;;;11.40;99.90;;;;;;4407865;28;658421;-68
2022/06/01 00:11:39;;;;;;;9.70;7.47;;;11.40;99.90;;;;;;4427129;28;658568;-68
2022/06/01 00:14:26;;;;;;;12.30;7.00;;;11.30;99.90;;;;;;4406706;28;656849;-68
2022/06/01 00:17:15;;;;;;;13.63;7.93;;;11.30;99.90;;;;;;4426999;28;657585;-68
2022/06/01 00:20:03;;;;;;;11.53;7.80;;;11.30;99.90;;;;;;4400445;28;658518;-68
2022/06/01 00:22:50;;;;;;;14.13;7.73;;;11.40;99.90;;;;;;4410973;28;657407;-68
2022/06/01 00:25:37;;;;;;;10.07;7.10;;;11.40;99.90;;;;;;4423500;28;658275;-68
2022/06/01 00:28:26;;;;;;;10.90;7.53;;;11.50;99.90;;;;;;4422817;28;657415;-68
2022/06/01 00:31:13;;;;;;;12.13;7.57;;;11.40;99.90;;;;;;4402485;28;658674;-68
2022/06/01 00:34:01;;;;;;;11.60;6.60;;;11.40;99.90;;;;;;4403819;28;657312;-68
2022/06/01 00:36:49;;;;;;;13.07;7.70;;;11.50;99.90;;;;;;4424435;28;657395;-68
2022/06/01 00:39:36;;;;;;;13.33;6.90;;;11.60;99.90;;;;;;4408914;28;660494;-68
2022/06/01 00:42:24;;;;;;;12.30;7.37;;;11.50;99.90;;;;;;4426849;28;658066;-68
2022/06/01 00:45:14;;;;;;;12.90;7.87;;;11.50;99.90;;;;;;4397387;28;657602;-68
2022/06/01 00:48:02;;;;;;;14.30;8.07;;;11.60;99.90;;;;;;4411271;28;657527;-68
2022/06/01 00:50:49;;;;;;;14.23;8.10;;;11.60;99.90;;;;;;4429260;28;658560;-68
2022/06/01 00:53:37;;;;;;;14.13;7.60;;;11.60;99.90;;;;;;4402539;28;658004;-68
2022/06/01 00:56:27;;;;;;;12.10;8.43;;;11.60;99.90;;;;;;4429047;28;657636;-68
2022/06/01 00:59:16;;;;;;;13.00;7.80;;;11.70;99.90;;;;;;4406618;28;657755;-68
2022/06/01 01:02:06;;;;;;;11.03;7.20;;;11.60;99.90;;;;;;4410867;28;658875;-69
2022/06/01 01:04:53;;;;;;;11.10;7.37;;;11.60;99.90;;;;;;4410895;28;658764;-68
2022/06/01 01:07:40;;;;;;;16.93;7.70;;;11.70;99.90;;;;;;4403731;28;657369;-68
2022/06/01 01:10:27;;;;;;;14.43;7.37;;;11.70;99.90;;;;;;4426817;28;659281;-68
2022/06/01 01:13:16;;;;;;;9.83;7.53;;;11.70;99.90;;;;;;4410076;28;657796;-69
2022/06/01 01:16:04;;;;;;;14.37;6.93;;;11.70;99.90;;;;;;4417049;28;656718;-68
2022/06/01 01:18:54;;;;;;;11.00;6.90;;;11.60;99.90;;;;;;4399014;28;657870;-68
2022/06/01 01:21:46;;;;;;;10.30;7.23;;;11.60;99.90;;;;;;4396281;28;657461;-68
2022/06/01 01:24:37;;;;;;;10.30;7.23;;;11.70;99.90;;;;;;4397566;28;658920;-68
2022/06/01 01:27:26;;;;;;;10.13;7.03;;;11.60;99.90;;;;;;4396362;28;657399;-68
2022/06/01 01:30:55;;;;;;;9.77;7.47;;;11.60;99.90;;;;;;4397502;28;658625;-68
2022/06/01 01:33:42;;;;;;;12.70;7.37;;;11.60;99.90;;;;;;4320409;28;656136;-68
2022/06/01 01:36:34;;;;;;;11.77;7.07;;;11.60;99.90;;;;;;4401145;28;657875;-68
2022/06/01 01:39:21;;;;;;;15.50;7.05;;;11.70;99.90;;;;;;4377458;28;657591;-68
2022/06/01 01:42:09;;;;;;;9.77;6.77;;;11.70;99.90;;;;;;4406353;28;657942;-68
2022/06/01 01:44:59;;;;;;;8.33;5.90;;;11.70;99.90;;;;;;4394566;28;657682;-68
2022/06/01 01:47:47;;;;;;;10.53;6.50;;;11.60;99.90;;;;;;4393613;28;656735;-68
2022/06/01 01:50:34;;;;;;;13.03;6.17;;;11.70;99.90;;;;;;4404800;28;657179;-68
2022/06/01 01:53:21;;;;;;;10.00;5.90;;;11.80;99.90;;;;;;4385985;28;658379;-68
2022/06/01 01:56:14;;;;;;;9.13;6.27;;;11.80;99.90;;;;;;4405852;28;657837;-69
2022/06/01 01:59:10;;;;;;;9.83;6.03;;;11.80;99.90;;;;;;4390451;28;656500;-68
2022/06/01 02:02:00;;;;;;;10.73;6.77;;;11.90;99.90;;;;;;4400345;28;656269;-68
2022/06/01 02:07:59;;;;;;;8.83;4.30;;;11.80;99.90;;;;;;4416397;28;657565;-68
2022/06/01 02:13:51;;;;;;;7.67;4.53;;;13.20;99.90;;;;;;4397450;28;657663;-68
2022/06/01 02:16:41;;;;;;;9.60;4.83;;;13.60;99.90;;;;;;4442115;28;657511;-68
2022/06/01 02:19:31;;;;;;;9.43;5.40;;;13.90;99.90;;;;;;4400653;28;657145;-68
2022/06/01 02:22:19;;;;;;;11.00;5.30;;;14.30;99.90;;;;;;4404640;28;657294;-68
2022/06/01 02:25:06;;;;;;;14.03;6.33;;;14.30;99.90;;;;;;4420085;28;657394;-68
2022/06/01 02:27:54;;;;;;;13.10;6.93;;;14.30;99.90;;;;;;4435330;28;658157;-68
2022/06/01 02:30:42;;;;;;;15.03;8.07;;;14.20;99.90;;;;;;4405587;28;657353;-67
2022/06/01 02:33:32;;;;;;;17.73;8.60;;;14.20;99.90;;;;;;4429705;28;658415;-67
2022/06/01 02:36:22;;;;;;;16.77;8.13;;;14.00;99.90;;;;;;4400859;28;657874;-67
2022/06/01 02:39:09;;;;;;;15.93;8.87;;;13.90;99.90;;;;;;4434006;28;658302;-67
2022/06/01 02:45:12;;;;;;;17.90;10.77;;;13.80;99.90;;;;;;4382455;28;659005;-67
2022/06/01 02:48:00;;;;;;;19.30;10.43;;;13.80;99.90;;;;;;4428979;28;659213;-67
2022/06/01 02:50:47;;;;;;;18.47;10.87;;;13.80;99.90;;;;;;4409039;28;659424;-67
2022/06/01 02:53:37;;;;;;;19.03;10.93;;;13.80;99.90;;;;;;4428423;28;659465;-68
2022/06/01 02:56:25;;;;;;;25.83;11.37;;;13.80;99.90;;;;;;4403456;28;658570;-67
2022/06/01 02:59:15;;;;;;;24.30;11.43;;;13.70;99.90;;;;;;4405582;28;659885;-67
2022/06/01 03:02:03;;;;;;;20.43;10.90;;;13.70;99.90;;;;;;4404671;28;659400;-67
2022/06/01 03:04:50;;;;;;;20.93;10.70;;;13.60;99.90;;;;;;4417297;28;658980;-67
2022/06/01 03:07:37;;;;;;;17.03;10.33;;;13.60;99.90;;;;;;4430971;28;658977;-67
2022/06/01 03:10:26;;;;;;;20.73;9.87;;;13.60;99.90;;;;;;4425973;28;658241;-67
2022/06/01 03:13:13;;;;;;;17.80;9.27;;;13.60;99.90;;;;;;4407553;28;658366;-67
2022/06/01 03:16:00;;;;;;;15.97;8.97;;;13.60;99.90;;;;;;4411034;28;658063;-67
2022/06/01 03:18:47;;;;;;;17.30;8.87;;;13.60;99.90;;;;;;4428742;28;658564;-68
2022/06/01 03:21:36;;;;;;;12.10;7.93;;;13.50;99.90;;;;;;4426918;28;657614;-68
2022/06/01 03:24:23;;;;;;;18.43;8.50;;;13.50;99.90;;;;;;4431167;28;658851;-67
2022/06/01 03:27:12;;;;;;;12.23;8.32;;;13.50;99.90;;;;;;4394778;28;658143;-67
2022/06/01 03:29:59;;;;;;;12.83;8.10;;;13.50;99.90;;;;;;4423596;28;658861;-67
2022/06/01 03:32:46;;;;;;;12.87;8.20;;;13.40;99.90;;;;;;4399552;28;657848;-67
2022/06/01 03:35:34;;;;;;;14.50;9.00;;;13.40;99.90;;;;;;4418618;28;658828;-67
2022/06/01 03:38:21;;;;;;;17.57;9.07;;;13.30;99.90;;;;;;4398973;28;657730;-67
2022/06/01 03:41:08;;;;;;;14.00;8.93;;;13.30;99.90;;;;;;4423778;28;658887;-67
2022/06/01 03:47:02;;;;;;;19.40;8.73;;;13.30;99.90;;;;;;4401094;28;657424;-67
2022/06/01 03:49:49;;;;;;;12.07;7.80;;;13.30;99.90;;;;;;4418783;28;658259;-67
2022/06/01 03:52:37;;;;;;;13.50;8.70;;;13.20;99.90;;;;;;4396660;28;657612;-68
2022/06/01 03:55:24;;;;;;;14.70;8.03;;;13.20;99.90;;;;;;4420840;28;658024;-67
2022/06/01 03:58:13;;;;;;;13.60;8.10;;;13.30;99.90;;;;;;4401662;28;658061;-68
2022/06/01 04:01:02;;;;;;;13.03;7.77;;;13.30;99.90;;;;;;4404043;28;657950;-67
2022/06/01 04:03:49;;;;;;;14.47;7.13;;;13.30;99.90;;;;;;4420432;28;657465;-68
2022/06/01 04:06:36;;;;;;;14.80;8.23;;;13.40;99.90;;;;;;4401385;28;658373;-68
2022/06/01 04:09:23;;;;;;;15.43;7.27;;;13.40;99.90;;;;;;4416739;28;658267;-67
2022/06/01 04:12:11;;;;;;;10.27;6.40;;;13.40;99.90;;;;;;4400962;28;657798;-68
2022/06/01 04:14:58;;;;;;;12.87;6.70;;;13.50;99.90;;;;;;4422671;28;659467;-67
2022/06/01 04:17:46;;;;;;;12.97;6.00;;;13.50;99.90;;;;;;4405153;28;657886;-67
2022/06/01 04:20:34;;;;;;;7.70;4.87;;;13.50;99.90;;;;;;4421017;28;659060;-68
2022/06/01 04:23:21;;;;;;;7.00;4.20;;;13.50;99.90;;;;;;4404061;28;656231;-67
2022/06/01 04:26:08;;;;;;;7.33;4.60;;;13.60;99.90;;;;;;4422282;28;656653;-68
2022/06/01 04:28:55;;;;;;;6.70;4.50;;;13.60;99.90;;;;;;4404574;28;657756;-67
2022/06/01 04:31:43;;;;;;;7.23;4.47;;;13.60;99.90;;;;;;4428141;28;656274;-68
2022/06/01 04:34:32;;;;;;;9.20;3.77;;;13.50;99.90;;;;;;4415060;28;656454;-68
2022/06/01 04:37:19;;;;;;;4.73;3.60;;;13.50;99.90;;;;;;4416130;28;656738;-68
2022/06/01 04:40:07;;;;;;;8.10;3.70;;;13.50;99.90;;;;;;4396379;28;656289;-67
2022/06/01 04:42:55;;;;;;;7.40;3.43;;;13.50;99.90;;;;;;4430533;28;656465;-67
2022/06/01 04:45:42;;;;;;;5.07;3.00;;;13.50;99.90;;;;;;4405167;28;656172;-68
2022/06/01 04:48:29;;;;;;;4.13;3.13;;;13.50;99.90;;;;;;4431844;28;656388;-67
2022/06/01 04:51:19;;;;;;;3.58;2.67;;;13.50;99.90;;;;;;4411566;28;656881;-68
2022/06/01 04:54:07;;;;;;;6.13;2.70;;;13.40;99.90;;;;;;4412333;28;656848;-67
2022/06/01 04:56:54;;;;;;;5.53;3.00;;;13.50;99.90;;;;;;4430118;28;656924;-68
2022/06/01 04:59:41;;;;;;;6.00;2.90;;;13.50;99.90;;;;;;4410554;28;656843;-68
2022/06/01 05:02:28;;;;;;;6.40;3.17;;;13.50;99.90;;;;;;4426949;28;657700;-67
2022/06/01 05:05:15;;;;;;;8.73;3.23;;;13.50;99.90;;;;;;4406956;28;656963;-68
2022/06/01 05:08:05;;;;;;;5.07;3.13;;;13.50;99.90;;;;;;4430379;28;657716;-68
2022/06/01 05:10:52;;;;;;;4.18;2.67;;;13.50;99.90;;;;;;4410954;28;658605;-68
2022/06/01 05:13:39;;;;;;;4.97;3.20;;;13.50;99.90;;;;;;4427555;28;656690;-67
2022/06/01 05:16:26;;;;;;;5.67;3.07;;;13.40;99.90;;;;;;4409859;28;656768;-68
2022/06/01 05:19:14;;;;;;;6.77;3.80;;;13.40;99.90;;;;;;4429834;28;657013;-67
2022/06/01 05:22:01;;;;;;;5.43;4.07;;;13.50;99.90;;;;;;4411649;28;657227;-68
2022/06/01 05:24:49;;;;;;;8.77;5.03;;;13.40;99.90;;;;;;4430492;28;657123;-67
2022/06/01 05:27:37;;;;;;;9.50;6.53;;;13.40;99.90;;;;;;4408757;28;656865;-68
2022/06/01 05:30:24;;;;;;;9.90;6.70;;;13.40;99.90;;;;;;4425831;28;656552;-68
2022/06/01 05:33:11;;;;;;;10.07;6.53;;;13.50;99.90;;;;;;4407958;28;657348;-68
2022/06/01 05:35:58;;;;;;;6.20;5.60;;;13.50;99.90;;;;;;4429469;28;661337;-67
2022/06/01 05:38:47;;;;;;;8.00;5.30;;;13.60;99.90;;;;;;4415028;28;656947;-68
2022/06/01 05:41:35;;;;;;;8.13;5.43;;;13.60;99.90;;;;;;4428191;28;656609;-68
2022/06/01 05:44:23;;;;;;;6.53;4.90;;;13.60;99.90;;;;;;4402449;28;657886;-67
2022/06/01 05:47:10;;;;;;;6.77;4.87;;;13.80;99.90;;;;;;4420140;28;656870;-68
2022/06/01 05:49:57;;;;;;;11.40;5.10;;;13.90;99.90;;;;;;4435795;28;656736;-68
2022/06/01 05:52:44;;;;;;;8.63;6.30;;;14.10;99.90;;;;;;4432021;28;657155;-68
2022/06/01 05:55:32;;;;;;;10.77;7.13;;;14.00;99.90;;;;;;4401475;28;656604;-68
2022/06/01 05:58:22;;;;;;;12.03;6.93;;;14.00;99.90;;;;;;4423968;28;657689;-68
2022/06/01 06:01:09;;;;;;;14.13;7.25;;;13.90;99.90;;;;;;4403062;28;657703;-67
2022/06/01 06:03:56;;;;;;;11.83;7.30;;;14.00;99.90;;;;;;4400488;28;658937;-67
2022/06/01 06:06:44;;;;;;;10.27;6.40;;;14.00;99.90;;;;;;4421323;28;657998;-68
2022/06/01 06:09:31;;;;;;;9.60;6.17;;;14.20;99.90;;;;;;4402777;28;657475;-68
2022/06/01 06:12:19;;;;;;;11.40;5.60;;;14.30;99.90;;;;;;4421704;28;656605;-67
2022/06/01 06:15:09;;;;;;;7.43;5.03;;;14.20;99.90;;;;;;4399427;28;658658;-67
2022/06/01 06:17:56;;;;;;;13.50;7.13;;;14.10;99.90;;;;;;4401103;28;657451;-68
2022/06/01 06:20:44;;;;;;;11.90;5.53;;;14.10;99.90;;;;;;4419049;28;658263;-67
2022/06/01 06:23:31;;;;;;;15.13;7.20;;;14.10;99.90;;;;;;4398989;28;657829;-68
2022/06/01 06:26:19;;;;;;;15.00;7.93;;;14.00;99.90;;;;;;4426159;28;658453;-67
2022/06/01 06:29:08;;;;;;;11.97;8.00;;;13.90;99.90;;;;;;4400365;28;657671;-68
2022/06/01 06:31:57;;;;;;;14.03;9.07;;;14.10;99.90;;;;;;4402021;28;657817;-68
2022/06/01 06:34:44;;;;;;;14.37;9.50;;;13.80;99.90;;;;;;4420633;28;657455;-68
2022/06/01 06:37:31;;;;;;;26.13;8.43;;;13.90;99.90;;;;;;4398461;28;658101;-68
2022/06/01 06:40:18;;;;;;;9.57;7.20;;;13.80;99.90;;;;;;4422742;28;657543;-68
2022/06/01 06:43:06;;;;;;;11.03;8.33;;;13.80;99.90;;;;;;4401440;28;656848;-68
2022/06/01 06:45:56;;;;;;;9.33;7.20;;;13.70;99.90;;;;;;4421864;28;658341;-68
2022/06/01 06:48:45;;;;;;;9.03;6.30;;;13.70;99.90;;;;;;4402701;28;657467;-68
2022/06/01 06:51:32;;;;;;;7.32;5.40;;;13.60;99.90;;;;;;4403646;28;657912;-67
2022/06/01 06:54:19;;;;;;;11.93;7.37;;;13.50;99.90;;;;;;4420151;28;656358;-67
2022/06/01 06:57:07;;;;;;;23.33;11.37;;;13.50;99.90;;;;;;4403925;28;658361;-68
2022/06/01 06:59:54;;;;;;;10.83;6.67;;;13.40;99.90;;;;;;4416601;28;660727;-68
2022/06/01 07:02:42;;;;;;;8.57;7.13;;;13.40;99.90;;;;;;4391447;28;657192;-68
2022/06/01 07:08:35;;;;;;;12.27;8.30;;;13.30;99.90;;;;;;4380336;28;656452;-68
2022/06/01 07:11:26;;;;;;;8.43;7.10;;;13.40;99.90;;;;;;4420271;28;657163;-67
2022/06/01 07:14:13;;;;;;;11.05;7.57;;;13.40;99.90;;;;;;4382130;28;658255;-68
2022/06/01 07:17:00;;;;;;;11.80;7.07;;;13.50;99.90;;;;;;4382987;28;658219;-68
2022/06/01 07:19:48;;;;;;;12.23;6.40;;;13.60;99.90;;;;;;4407000;28;656951;-68
2022/06/01 07:22:37;;;;;;;9.37;6.00;;;13.50;99.90;;;;;;4381296;28;657347;-68
2022/06/01 07:25:24;;;;;;;11.07;6.10;;;13.50;99.90;;;;;;4396264;28;657069;-67
2022/06/01 07:28:11;;;;;;;7.90;5.63;;;13.60;99.90;;;;;;4380637;28;657604;-68
2022/06/01 07:30:59;;;;;;;12.03;6.70;;;13.60;99.90;;;;;;4406789;28;657521;-67
2022/06/01 07:33:47;;;;;;;11.17;6.67;;;13.80;99.90;;;;;;4379921;28;657512;-68
2022/06/01 07:36:34;;;;;;;10.27;6.33;;;14.00;99.90;;;;;;4408162;28;657140;-68
2022/06/01 07:45:32;;;;;;;8.30;5.07;;;14.10;99.90;;;;;;4384663;28;656503;-68
2022/06/01 07:48:19;;;;;;;9.67;5.43;;;14.30;99.90;;;;;;4404370;28;657364;-67
2022/06/01 07:51:06;;;;;;;8.07;5.70;;;14.70;99.90;;;;;;4380203;28;656440;-68
2022/06/01 07:53:55;;;;;;;7.37;5.10;;;14.80;99.90;;;;;;4397133;28;657118;-68
2022/06/01 07:56:43;;;;;;;9.73;5.90;;;14.90;99.90;;;;;;4384096;28;657281;-68
2022/06/01 07:59:30;;;;;;;6.90;5.40;;;15.10;99.90;;;;;;4377784;28;656386;-68
2022/06/01 08:02:18;;;;;;;11.43;5.50;;;15.20;99.90;;;;;;4405272;28;657495;-67
2022/06/01 08:05:06;;;;;;;8.00;5.20;;;15.40;99.90;;;;;;4400763;28;657855;-68
2022/06/01 08:07:53;;;;;;;6.33;5.00;;;15.70;99.90;;;;;;4407276;28;657319;-68
2022/06/01 08:10:41;;;;;;;6.47;4.47;;;15.80;99.90;;;;;;4385020;28;656272;-68
2022/06/01 08:13:29;;;;;;;7.83;4.13;;;16.10;99.90;;;;;;4414819;28;656895;-68
2022/06/01 08:16:16;;;;;;;6.63;4.63;;;16.30;99.90;;;;;;4400789;28;656509;-68
2022/06/01 08:19:04;;;;;;;5.03;3.63;;;16.40;99.90;;;;;;4421520;28;656867;-68
2022/06/01 08:21:51;;;;;;;6.57;3.53;;;17.30;99.90;;;;;;4409229;28;656726;-68
2022/06/01 08:24:38;;;;;;;6.70;3.80;;;17.40;99.90;;;;;;4427093;28;657728;-68
2022/06/01 08:27:25;;;;;;;5.70;3.80;;;17.40;99.90;;;;;;4411202;28;656560;-68
2022/06/01 08:30:14;;;;;;;5.17;3.53;;;17.20;99.90;;;;;;4431705;28;657925;-67
2022/06/01 08:33:01;;;;;;;4.97;3.30;;;16.80;99.90;;;;;;4410395;28;656549;-67
2022/06/01 08:35:51;;;;;;;6.00;3.47;;;16.90;99.90;;;;;;4429536;28;656382;-68
2022/06/01 08:38:39;;;;;;;7.27;3.43;;;17.50;99.90;;;;;;4404807;28;657523;-68
2022/06/01 08:41:29;;;;;;;6.17;2.90;;;17.80;99.90;;;;;;4405691;28;656697;-68
2022/06/01 08:44:23;;;;;;;4.90;3.47;;;18.10;99.90;;;;;;4407489;28;657740;-68
2022/06/01 08:47:21;;;;;;;4.13;3.00;;;18.20;99.90;;;;;;4395500;28;657496;-68
2022/06/01 08:50:11;;;;;;;2.70;2.30;;;18.50;99.90;;;;;;4403666;28;657322;-67
2022/06/01 08:53:00;;;;;;;5.07;3.30;;;18.30;99.90;;;;;;4405857;28;656578;-68
2022/06/01 08:55:49;;;;;;;3.00;2.40;;;18.50;99.90;;;;;;4406610;28;657690;-67
2022/06/01 08:58:42;;;;;;;3.97;2.83;;;18.10;99.90;;;;;;4410669;28;656623;-67
2022/06/01 09:01:33;;;;;;;3.00;2.47;;;18.90;99.90;;;;;;4411116;28;656422;-68
2022/06/01 09:04:28;;;;;;;11.53;2.17;;;18.60;99.90;;;;;;4406111;28;656879;-67
2022/06/01 09:07:21;;;;;;;1.97;1.73;;;18.20;99.90;;;;;;4381548;28;657190;-68
2022/06/01 09:10:17;;;;;;;3.20;2.20;;;18.60;99.90;;;;;;4408147;28;657213;-67
2022/06/01 09:13:08;;;;;;;4.53;2.00;;;18.20;99.90;;;;;;4401176;28;656887;-68
2022/06/01 09:15:57;;;;;;;2.73;2.30;;;18.50;99.90;;;;;;4408981;28;656859;-67
2022/06/01 09:18:46;;;;;;;3.43;2.17;;;18.50;99.90;;;;;;4420884;28;657168;-67
2022/06/01 09:24:41;;;;;;;4.43;2.47;;;19.00;99.90;;;;;;4403905;28;657402;-67
2022/06/01 09:27:35;;;;;;;5.10;3.27;;;18.60;99.90;;;;;;4426483;28;657004;-68
2022/06/01 09:30:23;;;;;;;4.40;2.80;;;19.10;99.90;;;;;;4376745;28;656807;-68
2022/06/01 09:33:16;;;;;;;5.30;3.17;;;19.70;99.90;;;;;;4411386;28;658950;-68
2022/06/01 09:36:20;;;;;;;5.03;3.13;;;18.70;99.90;;;;;;4405761;28;657421;-67
2022/06/01 09:39:16;;;;;;;5.97;2.80;;;18.90;99.90;;;;;;4404444;28;656845;-67
2022/06/01 09:42:12;;;;;;;7.30;2.80;;;19.60;99.90;;;;;;4406255;28;657175;-67
2022/06/01 09:45:00;;;;;;;6.30;3.10;;;19.50;99.90;;;;;;4408859;28;656644;-68
2022/06/01 09:47:50;;;;;;;5.83;3.40;;;19.20;99.90;;;;;;4406275;28;657482;-67
2022/06/01 09:50:44;;;;;;;4.00;2.90;;;19.90;99.90;;;;;;4392634;28;657506;-67
2022/06/01 09:53:33;;;;;;;5.67;2.97;;;19.00;99.90;;;;;;4385501;28;657262;-67
2022/06/01 09:56:31;;;;;;;8.20;2.80;;;19.10;99.90;;;;;;4409383;28;657077;-68
2022/06/01 10:08:42;;;;;;;2.13;1.63;;;20.30;99.90;;;;;;4387007;28;657061;-67
2022/06/01 10:11:34;;;;;;;3.50;2.20;;;19.90;99.90;;;;;;4405742;28;656622;-67
2022/06/01 10:14:23;;;;;;;2.63;2.20;;;19.70;99.90;;;;;;4386663;28;657150;-68
2022/06/01 10:17:16;;;;;;;2.83;1.80;;;20.30;99.90;;;;;;4406936;28;656609;-68
2022/06/01 10:20:14;;;;;;;2.40;1.50;;;21.00;82.80;;;;;;4406863;28;657047;-68
2022/06/01 10:23:05;;;;;;;1.80;1.70;;;21.10;88.80;;;;;;4406496;28;656601;-67
2022/06/01 10:25:53;;;;;;;4.83;1.90;;;21.40;84.60;;;;;;4408936;28;657207;-68
2022/06/01 10:28:44;;;;;;;2.57;1.80;;;21.40;95.70;;;;;;4409002;28;656798;-66
2022/06/01 10:31:33;;;;;;;1.93;1.73;;;21.20;86.60;;;;;;4409343;28;656305;-68
2022/06/01 10:34:22;;;;;;;2.70;1.70;;;20.10;92.90;;;;;;4414567;28;657443;-68
2022/06/01 10:37:14;;;;;;;2.80;2.17;;;19.80;86.40;;;;;;4425409;28;656665;-68
2022/06/01 10:40:05;;;;;;;2.27;2.03;;;20.50;86.70;;;;;;4383582;28;658144;-68
2022/06/01 10:46:05;;;;;;;3.43;2.30;;;22.00;75.20;;;;;;4402038;28;656603;-68
2022/06/01 10:48:56;;;;;;;2.90;1.80;;;21.90;77.70;;;;;;4382862;28;657330;-68
2022/06/01 10:51:43;;;;;;;3.77;2.10;;;21.20;82.80;;;;;;4402572;28;657317;-68
2022/06/01 10:54:35;;;;;;;10.03;2.07;;;21.70;74.20;;;;;;4406251;28;656572;-68
2022/06/01 10:57:22;;;;;;;4.73;2.20;;;21.50;89.00;;;;;;4401609;28;658729;-68
2022/06/01 11:00:11;;;;;;;4.03;2.23;;;21.70;81.70;;;;;;4429417;28;657194;-68
2022/06/01 11:03:31;;;;;;;3.57;1.80;;;22.10;76.20;;;;;;4410564;28;658592;-67
2022/06/01 11:06:30;;;;;;;5.07;2.10;;;21.90;72.60;;;;;;4401203;28;656542;-68
2022/06/01 11:09:19;;;;;;;2.83;1.93;;;21.20;75.20;;;;;;4384776;28;656829;-68
2022/06/01 11:12:08;;;;;;;2.87;1.90;;;21.70;71.30;;;;;;4410661;28;656630;-67
2022/06/01 11:15:05;;;;;;;3.97;2.00;;;22.50;74.20;;;;;;4409617;28;656729;-68
2022/06/01 11:17:56;;;;;;;2.83;2.10;;;22.40;67.60;;;;;;4408115;28;657076;-68
2022/06/01 11:21:02;;;;;;;2.87;1.90;;;22.40;71.90;;;;;;4404664;28;656866;-68
2022/06/01 11:23:59;;;;;;;3.90;1.70;;;22.80;71.10;;;;;;4423871;28;656475;-68
2022/06/01 11:26:54;;;;;;;5.30;2.10;;;22.60;61.80;;;;;;4408780;28;656247;-67
2022/06/01 11:29:53;;;;;;;5.43;1.90;;;22.80;68.50;;;;;;4405940;28;656853;-68
2022/06/01 11:32:44;;;;;;;2.07;1.60;;;22.70;63.10;;;;;;4385249;28;656289;-68
2022/06/01 11:35:33;;;;;;;4.70;1.70;;;22.70;63.90;;;;;;4405857;28;656522;-68
2022/06/01 11:38:22;;;;;;;4.87;2.10;;;22.50;60.80;;;;;;4408687;28;656802;-68
2022/06/01 11:41:12;;;;;;;3.13;1.77;;;22.50;59.20;;;;;;4425979;28;657068;-68
2022/06/01 11:44:01;;;;;;;7.23;2.20;;;22.90;64.60;;;;;;4406140;28;657031;-68
2022/06/01 11:46:53;;;;;;;2.83;1.53;;;22.70;66.60;;;;;;4405605;28;656868;-68
2022/06/01 11:49:41;;;;;;;6.33;2.10;;;22.10;59.80;;;;;;4391954;28;656785;-68
2022/06/01 11:52:33;;;;;;;3.40;1.70;;;20.90;65.50;;;;;;4427332;28;656889;-67
2022/06/01 11:55:40;;;;;;;3.03;1.53;;;20.70;63.30;;;;;;4387833;28;656460;-68
2022/06/01 11:58:40;;;;;;;3.40;1.60;;;20.70;68.40;;;;;;4407651;28;656636;-67
2022/06/01 12:01:35;;;;;;;4.17;1.87;;;20.70;67.10;;;;;;4406747;28;656450;-68
2022/06/01 12:04:24;;;;;;;4.77;1.80;;;20.90;71.60;;;;;;4381764;28;657095;-68
2022/06/01 12:07:13;;;;;;;2.53;1.70;;;20.90;70.60;;;;;;4404193;28;658016;-68
2022/06/01 12:10:01;;;;;;;2.17;1.50;;;21.00;68.50;;;;;;4412140;28;656108;-68
2022/06/01 12:13:03;;;;;;;2.87;1.70;;;21.90;64.50;;;;;;4427176;28;656901;-68
2022/06/01 12:16:19;;;;;;;8.40;1.77;;;22.80;67.40;;;;;;4385631;28;657341;-68
2022/06/01 12:19:09;;;;;;;6.20;1.70;;;21.90;60.50;;;;;;4383926;28;656780;-68
2022/06/01 12:22:00;;;;;;;2.20;1.40;;;22.20;65.10;;;;;;4404513;28;657834;-68
2022/06/01 12:31:20;;;;;;;3.93;1.47;;;21.00;60.00;;;;;;4376905;28;657213;-68
2022/06/01 12:34:11;;;;;;;2.27;1.40;;;20.80;59.60;;;;;;4398613;28;658056;-68
2022/06/01 12:36:59;;;;;;;1.80;1.27;;;20.90;61.60;;;;;;4386029;28;656832;-68
2022/06/01 12:39:49;;;;;;;4.57;1.70;;;20.80;67.50;;;;;;4372454;28;656498;-68
2022/06/01 12:42:38;;;;;;;5.03;1.50;;;20.70;64.90;;;;;;4404438;28;657111;-68
2022/06/01 12:45:35;;;;;;;2.40;1.30;;;20.80;62.70;;;;;;4406183;28;656612;-68
2022/06/01 12:48:24;;;;;;;2.00;1.40;;;20.90;61.70;;;;;;4378970;28;656981;-68
2022/06/01 12:51:11;;;;;;;2.67;1.30;;;20.60;63.20;;;;;;4407090;28;656728;-68
2022/06/01 12:53:59;;;;;;;2.23;1.50;;;20.60;66.20;;;;;;4417610;28;657876;-68
2022/06/01 12:56:48;;;;;;;3.70;1.50;;;21.40;68.00;;;;;;4401608;28;656465;-68
2022/06/01 12:59:36;;;;;;;4.93;1.40;;;22.00;66.20;;;;;;4407875;28;656844;-68
2022/06/01 13:02:24;;;;;;;4.07;1.70;;;23.00;62.10;;;;;;4420149;28;657042;-68
2022/06/01 13:05:14;;;;;;;3.10;1.57;;;22.30;57.40;;;;;;4402631;28;656652;-68
2022/06/01 13:08:01;;;;;;;8.17;5.33;;;22.80;59.20;;;;;;4407584;28;656665;-68
2022/06/01 13:10:48;;;;;;;2.93;1.50;;;22.70;56.60;;;;;;4422739;28;656914;-68
2022/06/01 13:13:35;;;;;;;1.77;1.40;;;23.20;59.60;;;;;;4401173;28;657131;-69
2022/06/01 13:16:23;;;;;;;3.33;1.60;;;23.20;57.20;;;;;;4419842;28;657660;-68
2022/06/01 13:19:20;;;;;;;1.97;1.70;;;23.60;60.10;;;;;;4421114;28;656583;-69
2022/06/01 13:22:10;;;;;;;4.40;1.57;;;24.20;58.20;;;;;;4383422;28;657781;-68
2022/06/01 13:24:59;;;;;;;2.63;1.40;;;23.40;56.30;;;;;;4410201;28;657342;-68
2022/06/01 13:27:46;;;;;;;3.73;1.50;;;23.50;57.50;;;;;;4410499;28;656761;-68
2022/06/01 13:30:34;;;;;;;1.53;1.30;;;23.40;55.60;;;;;;4430838;28;656199;-68
2022/06/01 13:33:25;;;;;;;3.13;1.60;;;23.40;57.50;;;;;;4404185;28;657321;-68
2022/06/01 13:36:15;;;;;;;2.57;1.40;;;22.70;54.50;;;;;;4399399;28;657161;-68
2022/06/01 13:39:05;;;;;;;1.83;1.27;;;22.80;55.60;;;;;;4410404;28;657518;-68
2022/06/01 13:41:54;;;;;;;2.03;1.37;;;22.60;52.50;;;;;;4413241;28;656873;-68
2022/06/01 13:44:48;;;;;;;2.37;1.50;;;22.90;53.60;;;;;;4412209;28;656902;-68
2022/06/01 13:47:36;;;;;;;4.17;1.40;;;22.80;51.20;;;;;;4392174;28;656552;-68
2022/06/01 13:50:28;;;;;;;3.30;1.27;;;22.30;52.20;;;;;;4427288;28;657436;-68
2022/06/01 13:53:20;;;;;;;3.90;1.20;;;22.40;49.70;;;;;;4411875;28;656555;-68
2022/06/01 13:56:22;;;;;;;3.30;1.20;;;22.70;47.80;;;;;;4412705;28;657752;-68
2022/06/01 13:59:11;;;;;;;1.60;1.20;;;23.10;46.80;;;;;;4409709;28;657634;-68
2022/06/01 14:02:01;;;;;;;3.13;1.17;;;23.40;49.10;;;;;;4412363;28;657356;-68
2022/06/01 14:04:48;;;;;;;2.97;1.10;;;23.10;49.10;;;;;;4407252;28;658421;-68
2022/06/01 14:07:42;;;;;;;2.03;1.10;;;22.60;47.40;;;;;;4409453;28;656571;-68
2022/06/01 14:10:33;;;;;;;2.47;1.27;;;23.40;48.20;;;;;;4403047;28;656394;-68
2022/06/01 14:13:23;;;;;;;3.10;1.20;;;23.50;49.20;;;;;;4389887;28;657415;-68
2022/06/01 14:16:10;;;;;;;3.10;1.30;;;23.20;46.90;;;;;;4413225;28;656504;-68
2022/06/01 14:18:58;;;;;;;2.33;1.20;;;23.40;49.10;;;;;;4431844;28;657667;-68
2022/06/01 14:21:47;;;;;;;2.70;1.40;;;23.80;47.10;;;;;;4407270;28;656927;-68
2022/06/01 14:30:42;;;;;;;2.40;1.20;;;22.50;47.40;;;;;;4390234;28;657584;-67
2022/06/01 14:33:29;;;;;;;3.27;1.33;;;22.00;48.80;;;;;;4421937;28;656045;-68
2022/06/01 14:36:17;;;;;;;4.90;1.50;;;22.10;51.30;;;;;;4412565;28;656565;-68
2022/06/01 14:39:04;;;;;;;2.77;1.27;;;21.80;48.90;;;;;;4429708;28;656297;-67
2022/06/01 14:41:51;;;;;;;3.47;1.37;;;22.70;50.00;;;;;;4407584;28;656162;-67
2022/06/01 14:44:38;;;;;;;2.67;1.30;;;22.20;51.30;;;;;;4425767;28;656668;-68
2022/06/01 14:47:27;;;;;;;1.50;1.40;;;22.10;50.80;;;;;;4409543;28;657214;-68
2022/06/01 14:50:14;;;;;;;3.70;1.73;;;21.70;52.40;;;;;;4428702;28;657202;-67
2022/06/01 14:53:05;;;;;;;6.83;1.90;;;21.70;52.70;;;;;;4404875;28;656467;-68
2022/06/01 14:55:52;;;;;;;3.90;1.33;;;22.60;51.80;;;;;;4401974;28;657693;-68
2022/06/01 14:58:39;;;;;;;4.20;1.57;;;22.40;52.10;;;;;;4425883;28;657093;-67
2022/06/01 15:01:29;;;;;;;7.30;1.57;;;22.20;52.80;;;;;;4400227;28;656947;-66
2022/06/01 15:04:19;;;;;;;4.60;1.67;;;22.80;53.00;;;;;;4409440;28;657515;-66
2022/06/01 15:07:07;;;;;;;5.20;1.40;;;22.40;51.70;;;;;;4406805;28;656170;-66
2022/06/01 15:09:54;;;;;;;2.77;1.73;;;23.00;53.00;;;;;;4421468;28;656495;-65
2022/06/01 15:12:41;;;;;;;3.73;1.40;;;23.10;53.00;;;;;;4406718;28;656587;-66
2022/06/01 15:15:29;;;;;;;3.10;1.63;;;23.20;52.20;;;;;;4431764;28;657145;-66